Time;durP1;ratioP1;P1;durP2;ratioP2;P2;SDS_P1;SDS_P2;PMS_P1;PMS_P2;Temp;Humidity;BMP_temperature;BMP_pressure;BME280_temperature;BME280_humidity;BME280_pressure;Samples;Min_cycle;Max_cycle;Signal;HPM_P1;HPM_P2
2023/07/14 00:00:07;;;;;;;7.93;5.45;;;;;;;27.94;54.51;97997.81;5029438;28;20186;-57
2023/07/14 00:02:32;;;;;;;16.45;5.85;;;;;;;28.02;53.81;98008.16;5029487;28;20185;-57
2023/07/14 00:05:00;;;;;;;13.68;5.60;;;;;;;28.09;53.54;98014.19;5029447;28;20538;-56
2023/07/14 00:07:26;;;;;;;11.52;6.28;;;;;;;27.84;54.13;97994.88;5030504;28;20182;-56
2023/07/14 00:09:52;;;;;;;12.68;6.07;;;;;;;27.83;53.42;97984.47;5033481;28;20197;-56
2023/07/14 00:12:18;;;;;;;10.18;5.45;;;;;;;28.05;53.56;97997.06;5033185;28;20185;-57
2023/07/14 00:14:44;;;;;;;10.48;5.60;;;;;;;28.03;53.44;98004.47;5033056;28;20190;-57
2023/07/14 00:17:14;;;;;;;11.15;6.68;;;;;;;27.87;53.26;97970.50;5032994;28;20235;-57
2023/07/14 00:19:39;;;;;;;9.68;6.10;;;;;;;27.90;53.81;97978.03;5032969;28;20653;-56
2023/07/14 00:22:14;;;;;;;9.05;5.75;;;;;;;28.07;52.25;97983.53;5013059;28;20190;-57
2023/07/14 00:24:41;;;;;;;9.80;5.05;;;;;;;28.03;52.04;97971.72;5013083;28;20193;-56
2023/07/14 00:27:17;;;;;;;11.20;5.28;;;;;;;27.94;51.26;97978.41;5013093;28;20197;-56
2023/07/14 00:29:45;;;;;;;10.07;5.55;;;;;;;27.87;53.06;97962.50;5013060;28;20698;-57
2023/07/14 00:32:19;;;;;;;11.23;5.35;;;;;;;27.77;53.68;97978.22;5012925;28;20197;-56
2023/07/14 00:34:45;;;;;;;11.20;6.13;;;;;;;27.69;53.64;97961.72;5028680;28;20342;-56
2023/07/14 00:37:11;;;;;;;11.80;5.53;;;;;;;27.61;54.32;97941.56;5052537;28;20209;-56
2023/07/14 00:39:38;;;;;;;8.70;5.85;;;;;;;27.64;54.07;97965.03;5052605;28;20188;-56
2023/07/14 00:42:07;;;;;;;10.15;6.38;;;;;;;27.67;54.84;97966.44;5052842;28;20245;-56
2023/07/14 00:44:36;;;;;;;11.15;5.60;;;;;;;27.70;53.95;97966.78;5052489;28;20185;-57
2023/07/14 00:47:01;;;;;;;11.88;5.55;;;;;;;27.58;53.17;97955.28;5052457;28;20193;-56
2023/07/14 00:49:32;;;;;;;11.43;5.88;;;;;;;27.61;53.90;97976.13;5052369;28;20251;-57
2023/07/14 00:52:04;;;;;;;9.20;5.68;;;;;;;27.47;53.61;97961.34;5054185;28;20243;-56
2023/07/14 00:54:29;;;;;;;15.30;6.97;;;;;;;27.45;55.63;97970.56;5072243;28;20177;-57
2023/07/14 00:56:56;;;;;;;9.65;6.43;;;;;;;27.40;56.45;97965.13;5072137;28;20208;-57
2023/07/14 00:59:33;;;;;;;8.10;6.28;;;;;;;27.39;57.56;97966.16;5072341;28;20641;-57
2023/07/14 01:02:25;;;;;;;9.60;6.32;;;;;;;27.33;57.26;97959.06;5072255;28;20172;-58
2023/07/14 01:05:02;;;;;;;13.77;6.35;;;;;;;27.19;56.64;97953.09;5011333;28;20186;-57
2023/07/14 01:07:31;;;;;;;8.50;5.90;;;;;;;27.10;56.98;97942.91;5012442;28;20276;-57
2023/07/14 01:09:59;;;;;;;11.55;6.50;;;;;;;27.20;57.53;97959.19;5012327;28;20190;-57
2023/07/14 01:12:26;;;;;;;16.75;6.50;;;;;;;26.93;57.87;97926.75;5012273;28;20186;-57
2023/07/14 01:14:55;;;;;;;12.93;6.60;;;;;;;26.98;57.93;97939.38;5012130;28;20193;-57
2023/07/14 01:17:21;;;;;;;9.77;5.68;;;;;;;26.99;57.08;97939.16;5012120;28;20580;-57
2023/07/14 01:19:59;;;;;;;10.32;6.65;;;;;;;27.03;57.36;97953.63;5011079;28;20186;-58
2023/07/14 01:22:43;;;;;;;9.15;6.28;;;;;;;27.12;58.04;97962.13;5012111;28;20182;-57
2023/07/14 01:25:21;;;;;;;13.48;6.20;;;;;;;27.11;57.41;97977.25;5019280;28;20190;-57
2023/07/14 01:27:48;;;;;;;7.10;5.80;;;;;;;26.93;56.81;97950.66;5031860;28;20260;-57
2023/07/14 01:30:15;;;;;;;9.52;5.78;;;;;;;27.05;57.40;97967.50;5031749;28;20174;-57
2023/07/14 01:32:45;;;;;;;10.95;6.30;;;;;;;27.00;56.63;97961.22;5031717;28;20212;-57
2023/07/14 01:35:12;;;;;;;7.03;5.85;;;;;;;27.12;56.87;97973.56;5043348;28;20665;-57
2023/07/14 01:37:39;;;;;;;8.88;5.97;;;;;;;27.14;56.75;97982.13;5094070;28;20658;-57
2023/07/14 01:40:12;;;;;;;12.48;6.10;;;;;;;27.00;56.58;97959.38;5094111;28;20164;-57
2023/07/14 01:42:52;;;;;;;16.70;6.40;;;;;;;27.12;56.23;97983.38;5093774;28;20585;-57
2023/07/14 01:45:19;;;;;;;7.25;5.70;;;;;;;27.01;55.88;97966.31;5094295;28;20156;-57
2023/07/14 01:47:52;;;;;;;14.30;5.85;;;;;;;27.03;55.27;97968.75;5051046;28;20205;-57
2023/07/14 01:50:27;;;;;;;9.27;5.38;;;;;;;27.00;54.87;97970.00;5051389;28;20671;-57
2023/07/14 01:52:57;;;;;;;7.45;5.55;;;;;;;27.09;54.62;97984.63;5051123;28;20230;-57
2023/07/14 01:55:31;;;;;;;9.30;5.68;;;;;;;27.06;55.56;97987.72;5051270;28;20251;-57
2023/07/14 01:57:59;;;;;;;12.15;5.47;;;;;;;27.07;55.37;97975.25;5051031;28;20672;-57
2023/07/14 02:00:25;;;;;;;9.88;6.50;;;;;;;27.07;56.14;97975.25;5051319;28;20263;-57
2023/07/14 02:02:53;;;;;;;8.60;5.82;;;;;;;26.86;56.54;97949.91;5051042;28;20195;-57
2023/07/14 02:05:30;;;;;;;9.15;6.03;;;;;;;26.86;56.68;97968.50;5051017;28;20200;-57
2023/07/14 02:07:58;;;;;;;6.30;5.63;;;;;;;26.88;57.04;97966.44;5051238;28;20250;-57
2023/07/14 02:10:23;;;;;;;11.48;6.20;;;;;;;26.84;57.84;97961.78;5050924;28;20209;-57
2023/07/14 02:12:49;;;;;;;7.47;5.70;;;;;;;26.94;56.98;97978.84;5030698;28;20351;-57
2023/07/14 02:15:23;;;;;;;8.23;5.47;;;;;;;26.80;56.38;97969.38;5030851;28;20189;-57
2023/07/14 02:17:50;;;;;;;11.00;6.53;;;;;;;26.92;56.05;97978.25;5032956;28;20217;-57
2023/07/14 02:20:21;;;;;;;14.68;6.07;;;;;;;26.86;56.48;97975.66;5050723;28;20318;-57
2023/07/14 02:22:48;;;;;;;12.07;5.82;;;;;;;26.87;56.41;97986.06;5050662;28;20211;-57
2023/07/14 02:25:17;;;;;;;8.98;5.25;;;;;;;26.79;56.87;97980.22;5050712;28;20180;-57
2023/07/14 02:27:44;;;;;;;10.25;5.85;;;;;;;26.79;56.76;97996.97;5050842;28;20683;-57
2023/07/14 02:30:12;;;;;;;10.55;5.80;;;;;;;26.79;56.71;98004.94;5050353;28;20598;-57
2023/07/14 02:32:44;;;;;;;9.75;5.80;;;;;;;26.77;56.40;97990.25;5050473;28;20605;-57
2023/07/14 02:35:19;;;;;;;11.30;6.60;;;;;;;26.62;57.27;97965.84;5050550;28;20352;-57
2023/07/14 02:38:04;;;;;;;8.43;5.68;;;;;;;26.67;57.13;97974.81;5050323;28;20632;-57
2023/07/14 02:40:34;;;;;;;9.38;6.32;;;;;;;26.74;57.08;97975.56;5030380;28;20264;-57
2023/07/14 02:43:03;;;;;;;10.82;6.13;;;;;;;26.68;56.94;97960.50;5036908;28;20218;-57
2023/07/14 02:45:30;;;;;;;13.30;5.50;;;;;;;26.59;56.92;97943.19;5070245;28;20215;-57
2023/07/14 02:47:59;;;;;;;9.30;5.75;;;;;;;26.79;56.74;97970.41;5070021;28;20224;-57
2023/07/14 02:50:25;;;;;;;8.35;5.15;;;;;;;26.59;57.16;97950.38;5070119;28;20185;-57
2023/07/14 02:52:50;;;;;;;9.00;6.20;;;;;;;26.61;57.77;97966.88;5070161;28;20187;-57
2023/07/14 02:55:16;;;;;;;9.93;6.30;;;;;;;26.56;57.96;97956.91;5070079;28;20267;-57
2023/07/14 02:57:41;;;;;;;12.20;6.22;;;;;;;26.63;58.05;97972.78;5070018;28;20204;-57
2023/07/14 03:00:07;;;;;;;14.77;5.90;;;;;;;26.53;56.96;97962.63;5070017;28;20367;-57
2023/07/14 03:02:34;;;;;;;8.45;5.55;;;;;;;26.57;57.08;97963.84;5070263;28;20275;-57
2023/07/14 03:04:59;;;;;;;9.00;5.28;;;;;;;26.52;57.74;97976.91;5069882;28;20608;-57
2023/07/14 03:07:24;;;;;;;13.43;6.20;;;;;;;26.51;57.81;97996.53;5069939;28;20180;-57
2023/07/14 03:09:50;;;;;;;9.73;5.57;;;;;;;26.57;58.23;98027.56;5070014;28;20177;-57
2023/07/14 03:12:15;;;;;;;8.55;5.70;;;;;;;26.59;59.38;98025.50;5071583;28;20204;-57
2023/07/14 03:14:41;;;;;;;12.32;5.80;;;;;;;26.65;58.83;98045.88;5072238;28;20638;-57
2023/07/14 03:17:06;;;;;;;10.45;5.63;;;;;;;26.56;61.46;98041.84;5072139;28;20196;-57
2023/07/14 03:19:33;;;;;;;9.00;5.65;;;;;;;26.53;61.21;98021.00;5072223;28;20168;-57
2023/07/14 03:21:58;;;;;;;9.85;6.30;;;;;;;26.74;58.22;98022.53;5072139;28;20226;-57
2023/07/14 03:24:23;;;;;;;6.70;5.68;;;;;;;26.71;58.58;98007.84;5071849;28;20184;-57
2023/07/14 03:26:49;;;;;;;10.15;5.93;;;;;;;26.79;58.25;98015.56;5072178;28;20271;-57
2023/07/14 03:29:14;;;;;;;8.85;6.38;;;;;;;26.98;57.53;98029.66;5071864;28;20173;-57
2023/07/14 03:31:40;;;;;;;8.32;5.82;;;;;;;26.81;57.13;98004.69;5072104;28;20177;-57
2023/07/14 03:34:05;;;;;;;7.18;6.47;;;;;;;26.99;57.17;98024.16;5072059;28;20192;-57
2023/07/14 03:36:30;;;;;;;8.60;6.07;;;;;;;26.99;57.52;98021.50;5071989;28;20204;-57
2023/07/14 03:39:25;;;;;;;6.65;5.57;;;;;;;27.03;56.88;98020.03;5071723;28;20326;-57
2023/07/14 03:41:52;;;;;;;10.00;6.65;;;;;;;27.09;57.07;98035.09;5072194;28;20665;-57
2023/07/14 03:44:18;;;;;;;11.15;6.13;;;;;;;27.10;57.25;98050.00;5075798;28;20251;-57
2023/07/14 03:46:43;;;;;;;9.65;6.53;;;;;;;27.14;57.54;98072.47;5076018;28;20173;-57
2023/07/14 03:49:09;;;;;;;9.68;6.13;;;;;;;26.94;58.98;98037.25;5091017;28;20179;-57
2023/07/14 03:51:34;;;;;;;7.18;5.90;;;;;;;27.11;61.42;98070.22;5096238;28;20268;-57
2023/07/14 03:54:00;;;;;;;7.72;5.53;;;;;;;26.92;65.40;98052.63;5053376;28;20185;-57
2023/07/14 03:56:26;;;;;;;13.07;6.50;;;;;;;27.24;61.79;98094.03;5053290;28;20621;-57
2023/07/14 03:58:51;;;;;;;10.20;6.68;;;;;;;27.23;60.87;98105.72;5053340;28;20196;-57
2023/07/14 04:01:17;;;;;;;16.50;6.50;;;;;;;27.26;62.50;98113.25;5053320;28;20181;-57
2023/07/14 04:03:42;;;;;;;12.68;7.30;;;;;;;27.48;63.72;98130.44;5053254;28;20181;-57
2023/07/14 04:06:08;;;;;;;11.00;6.50;;;;;;;27.66;65.59;98143.78;5053210;28;20185;-57
2023/07/14 04:08:42;;;;;;;10.20;6.68;;;;;;;27.69;65.60;98124.72;5053220;28;20177;-57
2023/07/14 04:11:08;;;;;;;11.95;7.72;;;;;;;27.84;65.92;98167.78;5033345;28;20563;-57
2023/07/14 04:13:34;;;;;;;14.68;7.97;;;;;;;27.88;65.44;98173.47;5013257;28;20206;-57
2023/07/14 04:15:59;;;;;;;14.15;7.68;;;;;;;27.82;66.43;98167.16;5013265;28;20191;-57
2023/07/14 04:18:25;;;;;;;12.50;7.45;;;;;;;27.72;65.86;98145.56;5013236;28;20183;-58
2023/07/14 04:20:50;;;;;;;12.55;6.93;;;;;;;27.82;65.62;98167.16;5013296;28;20191;-58
2023/07/14 04:23:17;;;;;;;14.20;7.75;;;;;;;27.80;65.89;98174.56;5013475;28;20202;-57
2023/07/14 04:25:44;;;;;;;12.93;7.38;;;;;;;27.70;66.02;98128.19;5045152;28;20219;-57
2023/07/14 04:28:09;;;;;;;10.70;7.10;;;;;;;27.89;59.41;98146.66;5052750;28;20655;-58
2023/07/14 04:30:34;;;;;;;14.57;6.32;;;;;;;27.99;56.87;98146.94;5052776;28;20228;-57
2023/07/14 04:33:00;;;;;;;10.82;5.75;;;;;;;27.97;56.95;98137.53;5052735;28;20537;-57
2023/07/14 04:35:26;;;;;;;11.05;5.90;;;;;;;27.96;57.04;98131.41;5052665;28;20275;-58
2023/07/14 04:37:51;;;;;;;13.40;6.13;;;;;;;27.90;56.73;98111.03;5052495;28;20244;-58
2023/07/14 04:40:16;;;;;;;10.98;6.15;;;;;;;28.07;57.10;98128.03;5052824;28;20185;-57
2023/07/14 04:42:42;;;;;;;9.80;6.38;;;;;;;28.10;56.95;98130.22;5067727;28;20257;-58
2023/07/14 04:45:08;;;;;;;10.55;5.93;;;;;;;28.01;56.75;98097.00;5089061;28;20184;-58
2023/07/14 04:47:34;;;;;;;11.35;5.80;;;;;;;28.10;55.68;98092.97;5094953;28;20199;-57
2023/07/14 04:49:59;;;;;;;7.82;5.22;;;;;;;28.34;55.34;98107.22;5095109;28;20666;-58
2023/07/14 04:52:25;;;;;;;13.32;4.93;;;;;;;28.40;54.46;98107.16;5094824;28;20214;-58
2023/07/14 04:54:50;;;;;;;10.73;5.15;;;;;;;28.57;54.21;98120.69;5094960;28;20555;-58
2023/07/14 04:57:15;;;;;;;9.43;5.78;;;;;;;28.48;54.45;98108.69;5094582;28;20227;-58
2023/07/14 04:59:42;;;;;;;10.23;5.07;;;;;;;28.81;53.69;98141.81;5094883;28;20203;-58
2023/07/14 05:02:08;;;;;;;13.25;6.80;;;;;;;28.94;56.08;98140.84;5094838;28;20171;-58
2023/07/14 05:04:40;;;;;;;12.48;7.53;;;;;;;28.96;57.43;98139.59;5095083;28;20180;-58
2023/07/14 05:07:07;;;;;;;12.93;7.13;;;;;;;29.10;57.36;98148.22;5094524;28;20239;-58
2023/07/14 05:09:34;;;;;;;12.50;6.07;;;;;;;29.36;57.07;98164.59;5094720;28;20182;-58
2023/07/14 05:12:00;;;;;;;11.30;6.70;;;;;;;29.37;57.64;98160.88;5051920;28;20181;-58
2023/07/14 05:14:26;;;;;;;10.82;6.90;;;;;;;29.41;56.14;98151.41;5051932;28;20247;-58
2023/07/14 05:16:52;;;;;;;11.20;6.80;;;;;;;29.59;55.33;98155.84;5051857;28;20204;-58
2023/07/14 05:19:18;;;;;;;8.95;6.47;;;;;;;29.42;52.92;98123.69;5051975;28;20273;-58
2023/07/14 05:21:43;;;;;;;9.93;6.85;;;;;;;29.29;53.71;98128.41;5052140;28;20651;-58
2023/07/14 05:24:09;;;;;;;8.88;5.80;;;;;;;29.09;54.72;98134.06;5051871;28;20235;-58
2023/07/14 05:26:34;;;;;;;8.95;5.53;;;;;;;29.07;54.10;98133.50;5051755;28;20197;-58
2023/07/14 05:29:00;;;;;;;9.52;6.03;;;;;;;29.02;54.74;98113.88;5051751;28;20665;-58
2023/07/14 05:31:25;;;;;;;10.80;5.75;;;;;;;29.11;54.37;98120.50;5051614;28;20550;-58
2023/07/14 05:33:50;;;;;;;9.10;5.63;;;;;;;29.25;54.97;98122.75;5051678;28;20686;-58
2023/07/14 05:36:16;;;;;;;10.40;5.40;;;;;;;29.26;53.17;98123.56;5051330;28;20304;-57
2023/07/14 05:38:41;;;;;;;12.15;5.60;;;;;;;29.25;52.73;98113.91;5051765;28;20266;-58
2023/07/14 05:41:08;;;;;;;13.85;6.35;;;;;;;29.32;52.91;98127.97;5051488;28;20185;-58
2023/07/14 05:43:33;;;;;;;9.75;5.78;;;;;;;29.36;53.36;98132.59;5066641;28;20188;-57
2023/07/14 05:45:59;;;;;;;12.98;6.30;;;;;;;29.30;53.74;98128.19;5071386;28;20181;-58
2023/07/14 05:48:24;;;;;;;12.57;5.65;;;;;;;29.29;53.29;98105.25;5071138;28;20761;-58
2023/07/14 05:50:50;;;;;;;7.97;6.15;;;;;;;29.58;52.59;98136.38;5071299;28;20180;-58
2023/07/14 05:53:19;;;;;;;11.02;6.05;;;;;;;29.70;52.02;98137.19;5071255;28;20258;-58
2023/07/14 05:55:45;;;;;;;10.93;5.97;;;;;;;29.76;50.60;98141.59;5071121;28;20246;-58
2023/07/14 05:58:11;;;;;;;10.73;5.95;;;;;;;29.88;49.04;98139.72;5071144;28;20184;-58
2023/07/14 06:00:38;;;;;;;13.30;5.88;;;;;;;29.89;50.00;98113.81;5070981;28;20180;-58
2023/07/14 06:03:10;;;;;;;9.35;6.05;;;;;;;30.15;49.52;98146.19;5070878;28;20574;-55
2023/07/14 06:05:35;;;;;;;10.65;5.53;;;;;;;30.35;49.39;98157.31;5070522;28;20184;-58
2023/07/14 06:08:01;;;;;;;11.85;4.82;;;;;;;30.42;49.40;98147.28;5070826;28;20249;-58
2023/07/14 06:10:27;;;;;;;24.83;6.60;;;;;;;30.60;50.64;98168.47;5070829;28;20331;-56
2023/07/14 06:12:52;;;;;;;17.90;7.45;;;;;;;30.61;51.30;98148.72;5070840;28;20180;-55
2023/07/14 06:15:18;;;;;;;20.08;7.95;;;;;;;30.89;51.63;98177.38;4991238;28;20250;-56
2023/07/14 06:17:43;;;;;;;23.42;8.63;;;;;;;30.97;52.58;98174.28;4991368;28;20313;-56
2023/07/14 06:20:11;;;;;;;17.20;8.68;;;;;;;31.01;52.25;98162.88;4991438;28;20190;-56
2023/07/14 06:22:37;;;;;;;24.02;8.63;;;;;;;31.15;52.08;98163.38;4991411;28;20246;-56
2023/07/14 06:25:03;;;;;;;20.23;8.30;;;;;;;31.24;51.29;98160.09;4991378;28;20191;-56
2023/07/14 06:27:33;;;;;;;14.25;7.22;;;;;;;31.28;51.18;98158.56;4991285;28;20198;-58
2023/07/14 06:29:59;;;;;;;14.02;7.38;;;;;;;31.36;50.32;98168.84;4991250;28;20191;-56
2023/07/14 06:32:24;;;;;;;16.27;7.47;;;;;;;31.30;50.78;98156.47;4991192;28;20206;-56
2023/07/14 07:07:02;;;;;;;9.40;6.20;;;;;;;31.18;51.25;98163.75;5129851;27;21121;-56
2023/07/14 07:09:27;;;;;;;10.13;6.78;;;;;;;31.36;49.77;98160.03;5130178;27;20186;-56
2023/07/14 07:11:53;;;;;;;15.02;7.03;;;;;;;31.53;50.92;98182.25;5130125;27;20655;-56
2023/07/14 07:14:18;;;;;;;13.32;6.00;;;;;;;31.49;49.80;98154.38;5130009;27;20173;-56
2023/07/14 07:16:44;;;;;;;12.07;6.30;;;;;;;31.64;48.37;98179.47;5129982;28;20254;-56
2023/07/14 07:19:09;;;;;;;15.13;6.75;;;;;;;31.70;46.02;98178.50;5129696;28;20166;-56
2023/07/14 07:21:35;;;;;;;15.25;6.75;;;;;;;32.08;44.77;98208.03;5129857;27;20239;-56
2023/07/14 07:24:03;;;;;;;17.58;7.30;;;;;;;32.08;43.88;98170.53;5129871;27;20166;-56
2023/07/14 07:26:29;;;;;;;17.50;7.53;;;;;;;32.30;43.19;98189.34;5129831;27;20171;-56
2023/07/14 07:28:54;;;;;;;14.18;7.20;;;;;;;32.45;43.44;98192.19;5129740;28;20173;-56
2023/07/14 07:31:21;;;;;;;15.13;7.38;;;;;;;32.46;41.86;98183.91;5129714;28;20613;-56
2023/07/14 07:33:47;;;;;;;11.35;6.80;;;;;;;32.67;42.01;98196.50;5129636;27;20171;-56
2023/07/14 07:36:16;;;;;;;13.70;7.80;;;;;;;32.78;41.50;98205.50;5129267;27;20612;-56
2023/07/14 07:38:47;;;;;;;16.77;8.20;;;;;;;32.84;41.63;98191.09;5129522;27;20181;-56
2023/07/14 07:41:14;;;;;;;13.32;6.50;;;;;;;32.87;40.86;98196.75;5129560;27;20189;-56
2023/07/14 07:43:40;;;;;;;12.95;7.57;;;;;;;33.02;40.96;98204.16;5129510;27;20175;-56
2023/07/14 07:46:05;;;;;;;8.60;6.13;;;;;;;33.22;40.08;98212.41;5129498;27;20189;-55
2023/07/14 07:48:31;;;;;;;13.80;7.30;;;;;;;33.17;38.82;98202.41;5129426;27;20231;-55
2023/07/14 07:50:57;;;;;;;11.52;7.00;;;;;;;33.18;38.46;98187.16;5129588;27;20175;-56
2023/07/14 07:53:22;;;;;;;10.70;7.10;;;;;;;33.41;38.94;98217.16;5129278;27;20174;-56
2023/07/14 07:55:52;;;;;;;13.55;7.00;;;;;;;33.47;38.35;98213.47;5129163;28;20214;-56
2023/07/14 07:58:18;;;;;;;9.63;7.50;;;;;;;33.48;38.82;98209.72;5128957;27;20210;-56
2023/07/14 08:00:43;;;;;;;14.15;7.40;;;;;;;33.43;38.58;98192.75;5129121;28;20635;-56
2023/07/14 08:03:09;;;;;;;10.15;6.28;;;;;;;33.58;37.58;98211.69;5129142;27;20174;-56
2023/07/14 08:05:35;;;;;;;16.58;6.95;;;;;;;33.45;37.37;98196.81;5128964;27;20242;-56
2023/07/14 08:08:00;;;;;;;13.30;6.70;;;;;;;33.64;37.41;98202.59;5115394;27;20577;-56
2023/07/14 08:10:26;;;;;;;14.38;7.63;;;;;;;33.70;36.81;98204.25;5115216;28;20239;-56
2023/07/14 08:12:52;;;;;;;10.90;7.70;;;;;;;33.75;37.18;98207.78;5115236;28;20175;-56
2023/07/14 08:15:18;;;;;;;11.02;7.38;;;;;;;33.65;37.50;98182.75;5115154;28;20251;-56
2023/07/14 08:17:54;;;;;;;11.65;7.32;;;;;;;33.86;37.07;98211.41;5115163;28;20179;-56
2023/07/14 08:20:20;;;;;;;12.48;7.65;;;;;;;33.88;37.01;98212.75;5115202;28;20171;-56
2023/07/14 08:22:46;;;;;;;15.57;6.95;;;;;;;33.81;37.43;98190.69;5114969;28;20175;-56
2023/07/14 08:25:12;;;;;;;16.85;7.10;;;;;;;33.81;36.84;98174.56;5114759;27;20265;-56
2023/07/14 08:27:38;;;;;;;11.23;6.78;;;;;;;33.96;37.02;98185.41;5114981;28;20633;-56
2023/07/14 08:30:06;;;;;;;9.45;6.80;;;;;;;34.07;36.24;98197.03;5114894;28;20190;-56
2023/07/14 08:32:33;;;;;;;11.10;7.80;;;;;;;33.81;36.10;98171.88;5114832;28;20202;-56
2023/07/14 08:34:58;;;;;;;9.18;6.63;;;;;;;34.01;35.37;98201.56;5114356;28;20210;-56
2023/07/14 08:37:24;;;;;;;9.43;6.50;;;;;;;33.92;35.79;98173.56;5114799;28;20544;-56
2023/07/14 08:39:49;;;;;;;12.75;7.30;;;;;;;33.96;35.55;98169.31;5114665;28;20652;-56
2023/07/14 08:42:37;;;;;;;11.68;6.65;;;;;;;34.20;36.22;98186.63;5114553;28;20664;-56
2023/07/14 08:45:03;;;;;;;11.93;7.00;;;;;;;34.29;36.55;98195.84;5114617;28;20175;-56
2023/07/14 08:47:28;;;;;;;16.55;7.82;;;;;;;34.40;35.92;98207.44;5114589;28;20769;-56
2023/07/14 08:50:00;;;;;;;13.05;7.70;;;;;;;34.46;35.32;98209.91;5114274;28;20717;-56
2023/07/14 08:52:34;;;;;;;9.95;6.75;;;;;;;34.43;35.55;98186.22;5114483;28;20179;-56
2023/07/14 08:55:19;;;;;;;14.20;7.22;;;;;;;34.56;35.13;98196.50;5114306;28;20194;-56
2023/07/14 08:57:51;;;;;;;9.48;6.97;;;;;;;34.59;34.47;98190.59;5114373;28;20682;-56
2023/07/14 09:00:25;;;;;;;10.52;7.15;;;;;;;34.61;33.59;98193.03;5114432;28;20175;-56
2023/07/14 09:02:58;;;;;;;12.07;7.60;;;;;;;34.60;34.56;98180.66;5114346;28;20167;-56
2023/07/14 09:05:27;;;;;;;16.70;7.13;;;;;;;34.67;33.92;98184.72;5114200;28;20190;-56
2023/07/14 09:07:54;;;;;;;12.13;6.93;;;;;;;34.61;33.10;98166.94;5114469;28;20268;-56
2023/07/14 09:10:33;;;;;;;9.82;6.82;;;;;;;34.70;34.39;98176.13;5114109;28;20244;-56
2023/07/14 09:13:14;;;;;;;13.52;7.53;;;;;;;34.72;34.06;98165.09;5114062;28;20640;-56
2023/07/14 09:15:41;;;;;;;14.30;6.90;;;;;;;34.85;34.45;98184.25;5114006;28;20290;-56
2023/07/14 09:18:31;;;;;;;12.90;7.13;;;;;;;34.99;34.29;98180.00;5112738;28;20175;-56
2023/07/14 09:21:16;;;;;;;11.40;7.90;;;;;;;35.01;34.58;98188.59;5113939;28;20175;-56
2023/07/14 09:24:10;;;;;;;10.90;7.80;;;;;;;35.06;34.41;98183.25;5113618;28;20175;-56
2023/07/14 09:26:51;;;;;;;10.75;7.95;;;;;;;34.98;34.11;98166.81;5113784;28;20179;-56
2023/07/14 09:29:30;;;;;;;13.88;7.47;;;;;;;35.08;34.46;98180.28;5113805;28;20178;-56
2023/07/14 09:32:11;;;;;;;13.88;7.93;;;;;;;35.22;35.06;98182.19;5114035;28;20225;-56
2023/07/14 09:34:48;;;;;;;14.25;7.15;;;;;;;35.24;34.81;98163.91;5113582;28;20195;-56
2023/07/14 09:37:21;;;;;;;12.30;7.85;;;;;;;35.44;34.69;98173.88;5113690;28;20170;-56
2023/07/14 09:39:51;;;;;;;9.02;7.32;;;;;;;35.51;34.29;98167.16;5113142;28;20592;-56
2023/07/14 09:42:24;;;;;;;11.73;7.13;;;;;;;35.45;34.21;98160.16;5113537;28;20332;-56
2023/07/14 09:44:50;;;;;;;11.70;8.10;;;;;;;35.42;33.89;98147.22;5113190;28;20171;-56
2023/07/14 09:47:18;;;;;;;14.40;7.88;;;;;;;35.63;33.87;98169.56;5113422;28;20281;-56
2023/07/14 09:49:51;;;;;;;12.93;7.45;;;;;;;35.46;33.57;98137.53;5113348;28;20250;-56
2023/07/14 09:52:20;;;;;;;14.95;7.60;;;;;;;35.75;32.60;98168.25;5113285;28;20210;-56
2023/07/14 09:54:55;;;;;;;10.95;6.72;;;;;;;35.68;33.02;98139.94;5112500;28;20605;-56
2023/07/14 09:57:28;;;;;;;9.50;6.80;;;;;;;35.84;33.41;98147.75;5112148;28;20178;-56
2023/07/14 09:59:57;;;;;;;14.85;7.20;;;;;;;35.94;33.80;98149.59;5113199;28;20175;-56
2023/07/14 10:02:32;;;;;;;17.30;7.30;;;;;;;35.89;33.50;98136.97;5112845;27;20692;-56
2023/07/14 10:05:21;;;;;;;12.07;6.95;;;;;;;35.99;32.97;98136.94;5112980;28;20273;-56
2023/07/14 10:07:46;;;;;;;11.48;7.55;;;;;;;35.98;32.31;98121.84;5111538;28;20214;-57
2023/07/14 10:10:14;;;;;;;11.93;7.10;;;;;;;36.22;32.43;98147.13;5111017;28;20671;-57
2023/07/14 10:12:48;;;;;;;16.95;7.40;;;;;;;36.20;31.67;98143.88;5112363;28;20183;-56
2023/07/14 10:15:32;;;;;;;12.40;8.02;;;;;;;36.13;32.51;98112.91;5112406;28;20207;-57
2023/07/14 10:18:11;;;;;;;10.65;7.15;;;;;;;36.29;32.37;98126.09;5112347;28;20231;-57
2023/07/14 10:20:39;;;;;;;12.65;7.97;;;;;;;36.47;32.05;98140.84;5112610;28;20193;-57
2023/07/14 10:23:16;;;;;;;15.40;7.28;;;;;;;36.39;32.37;98109.88;5112220;28;20182;-56
2023/07/14 10:25:49;;;;;;;12.50;7.50;;;;;;;36.70;31.19;98146.41;5112485;28;20243;-56
2023/07/14 10:28:22;;;;;;;13.10;7.55;;;;;;;36.73;31.77;98132.38;5112770;28;20207;-56
2023/07/14 10:31:03;;;;;;;15.05;7.50;;;;;;;36.96;30.46;98136.25;5112157;28;20249;-56
2023/07/14 10:33:38;;;;;;;11.30;7.90;;;;;;;36.90;31.08;98116.59;5112458;28;20265;-56
2023/07/14 10:36:12;;;;;;;14.85;7.93;;;;;;;36.96;31.06;98123.59;5112300;28;20692;-56
2023/07/14 10:38:46;;;;;;;12.57;7.55;;;;;;;37.10;31.32;98132.69;5112355;28;20175;-56
2023/07/14 10:41:14;;;;;;;14.80;7.63;;;;;;;37.23;29.87;98126.63;5112122;28;20163;-56
2023/07/14 10:43:46;;;;;;;9.13;6.43;;;;;;;37.27;30.34;98122.28;5112039;28;20178;-56
2023/07/14 10:46:21;;;;;;;18.77;7.45;;;;;;;37.40;30.82;98127.03;5112385;28;20201;-56
2023/07/14 10:48:56;;;;;;;8.68;6.68;;;;;;;37.39;29.88;98093.03;5112275;28;20587;-56
2023/07/14 10:51:33;;;;;;;13.80;7.93;;;;;;;37.73;29.53;98123.53;5111988;28;20636;-56
2023/07/14 10:54:06;;;;;;;14.02;7.38;;;;;;;37.78;28.77;98095.63;5112122;28;20170;-56
2023/07/14 10:56:45;;;;;;;14.43;7.13;;;;;;;38.04;28.59;98110.50;5112368;28;20217;-56
2023/07/14 10:59:22;;;;;;;12.35;6.57;;;;;;;38.17;27.79;98109.81;5112152;28;20317;-56
2023/07/14 11:02:26;;;;;;;11.07;6.45;;;;;;;38.45;27.14;98128.66;5112289;28;20178;-56
2023/07/14 11:05:05;;;;;;;9.95;6.25;;;;;;;38.37;27.09;98082.50;5049084;28;20221;-56
2023/07/14 11:07:32;;;;;;;12.57;7.10;;;;;;;38.61;27.82;98119.25;5049321;28;20334;-57
2023/07/14 11:10:00;;;;;;;11.75;6.82;;;;;;;38.59;27.37;98105.22;5049254;28;20268;-57
2023/07/14 11:12:41;;;;;;;7.13;5.88;;;;;;;38.60;26.73;98101.44;5049291;28;20177;-57
2023/07/14 11:15:39;;;;;;;11.70;6.03;;;;;;;38.80;25.76;98125.47;5049218;28;20213;-57
2023/07/14 11:18:34;;;;;;;15.52;6.55;;;;;;;38.89;26.72;98110.22;5049283;28;20185;-56
2023/07/14 11:21:27;;;;;;;10.45;6.60;;;;;;;39.16;27.11;98117.66;5049167;28;20186;-57
2023/07/14 11:24:01;;;;;;;11.38;6.28;;;;;;;39.20;26.88;98111.34;5049061;28;20270;-57
2023/07/14 11:26:39;;;;;;;10.75;6.50;;;;;;;39.37;27.17;98110.81;5049150;28;20571;-57
2023/07/14 11:29:15;;;;;;;13.93;6.28;;;;;;;39.38;25.99;98098.91;5049061;28;20179;-57
2023/07/14 11:31:49;;;;;;;11.05;6.28;;;;;;;39.46;26.45;98096.28;5049075;28;20700;-57
2023/07/14 11:34:17;;;;;;;13.85;6.50;;;;;;;39.62;25.97;98110.41;5049003;28;20187;-57
2023/07/14 11:36:58;;;;;;;11.35;6.72;;;;;;;39.58;26.30;98088.53;5048976;28;20710;-57
2023/07/14 11:39:49;;;;;;;12.32;6.38;;;;;;;39.83;26.30;98107.03;5056097;28;20177;-57
2023/07/14 11:42:20;;;;;;;15.75;6.82;;;;;;;39.81;26.70;98081.34;5113827;28;20210;-57
2023/07/14 11:44:48;;;;;;;11.00;5.80;;;;;;;40.07;25.53;98096.78;5092693;28;20697;-57
2023/07/14 11:47:20;;;;;;;10.65;5.90;;;;;;;40.12;25.89;98094.03;5052444;28;20246;-57
2023/07/14 11:49:51;;;;;;;11.32;5.88;;;;;;;40.21;25.28;98102.25;5052841;28;20190;-57
2023/07/14 11:52:22;;;;;;;14.55;6.32;;;;;;;40.12;25.99;98102.16;5052559;28;20593;-56
2023/07/14 11:55:00;;;;;;;9.90;6.35;;;;;;;40.15;25.76;98081.75;5052102;28;20220;-57
2023/07/14 11:57:28;;;;;;;16.73;6.50;;;;;;;40.34;25.18;98106.84;5052237;28;20196;-57
2023/07/14 12:00:17;;;;;;;15.15;6.57;;;;;;;40.05;25.25;98073.81;5052111;28;20272;-57
2023/07/14 12:02:58;;;;;;;17.65;6.90;;;;;;;40.17;25.61;98090.38;5052167;28;20200;-57
2023/07/14 12:05:24;;;;;;;12.45;6.20;;;;;;;40.44;25.52;98090.38;5052065;28;20582;-57
2023/07/14 12:08:04;;;;;;;17.93;6.53;;;;;;;40.53;25.19;98097.47;5052064;28;20185;-57
2023/07/14 12:10:38;;;;;;;14.98;6.18;;;;;;;40.68;25.71;98093.66;5052270;28;20937;-57